Hlavní strana
METAR-TAF:

METAR-TAF

Letiště :

Robinson Municipal Airport

Robinson, Illinois, Spojené státy americké

zeměpisná šířka: 39-00-57N, zeměpisná délka: 087-38-59W, výška: 141 m

Aktuální stav počasí

Zpráva byla vytvořena před 22 minutami, v 21:35 UTC
Severozápadní vítr 3 kt
Teplota 8°C
Vlhkost vzduchu 53%
Tlak 1028 hPa
Viditelnost: 16.1 km
Jasno

METAR: KRSV 252135Z AUTO 32003KT 10SM CLR 08/M01 A3035 RMK AO2 T00751013

Čas: 15:57 (21:57 UTC)


TAF: chybějící

Stav a předpovědi počasí z více než 4 000 letišť (zprávy METAR a TAF).

Červené a žluté tečky na mapě představují dostupné meteorologické stanice.

Když kurzor umístíte na tečku, zobrazí se název stanice.

Pak kliknutím zobrazíte stav a předpověď počasí.

Chcete-li změnit mapu, kliknutím na zelené tlačítko se znaménkem +mapu přiblížíte, kliknutím na zelené tlačítko se znaménkem – mapu oddálíte a kliknutím na zelené šipky přejdete na sousední mapy.


METAR-TAF: